Latest Coastal Weather Observations for Wynyard

IDV60701

Issued at 5:51 am EST Tuesday 26 May 2015 (issued every 10 minutes, with the page automatically refreshed every 10 minutes)

About coastal observations | Map of coastal stations | Coastal observations for VIC | Marine services | Other Formats
Station Details ID: 091107 Name: WYNYARD AIRPORT Lat: -41.00 Lon: 145.73 Height: 12.0 m
Data from the previous 72 hours. | See also: Recent months at Wynyard
Date/Time
EST
Temp

°C
Wind Pressure Rain
since 9am
mm
Weather Cloud Vis
km
Sea
Height
m
Swell
Dir
 
Speed
knots
Gust
knots
hPa Trend Height
m
Period
s
Dir
26/05:30am 3.0 WSW 4 5 1027.6 - 0.2 - Partly cloudy 4 - - - -
26/05:07am 2.6 WSW 4 5 1027.5 - 0.2 - Partly cloudy 0.5 - - - -
26/05:00am 3.1 SW 4 5 1027.6 - 0.2 - Partly cloudy 0.2 - - - -
26/04:51am 4.0 SSW 3 4 1027.6 - 0.2 - Partly cloudy 0.7 - - - -
26/04:30am 3.4 W 5 7 1027.6 - 0.2 - Partly cloudy 3 - - - -
26/04:00am 4.2 NW 5 6 1027.7 - 0.0 - Partly cloudy 4 - - - -
26/03:30am 3.4 W 5 6 1027.8 - 0.0 - Partly cloudy 3 - - - -
26/03:24am 3.3 W 5 7 1027.8 - 0.0 - Partly cloudy 4 - - - -
26/03:00am 4.2 WNW 5 6 1027.9 - 0.0 - Partly cloudy 0.1 - - - -
26/02:55am 4.6 WNW 5 6 1027.9 - 0.0 - Partly cloudy 0.2 - - - -
26/02:46am 3.8 W 6 7 1027.9 - 0.0 - Partly cloudy 5 - - - -
26/02:33am 4.0 W 8 9 1028.0 - 0.0 - - 8 - - - -
26/02:30am 4.0 W 8 9 1028.0 - 0.0 - Partly cloudy 7 - - - -
26/02:11am 4.0 WNW 5 7 1027.8 - 0.0 - Partly cloudy 5 - - - -
26/02:06am 4.2 WNW 5 7 1027.9 - 0.0 - Partly cloudy 8 - - - -
26/02:00am 4.0 W 5 6 1028.0 - 0.0 - Partly cloudy 7 - - - -
26/01:30am 4.1 WSW 5 6 1028.0 - 0.0 - Partly cloudy 5 - - - -
26/01:17am 5.0 WSW 5 7 1027.9 - 0.0 - Partly cloudy 5 - - - -
26/01:11am 4.7 WSW 6 7 1027.9 - 0.0 - Partly cloudy 8 - - - -
26/01:00am 4.5 SW 5 7 1028.0 - 0.0 - Partly cloudy 5 - - - -
26/12:30am 4.3 S 5 7 1028.2 - 0.0 - - 3 - - - -
26/12:00am 3.9 SSW 3 5 1028.3 - 0.0 - Mostly clear 5 - - - -
 
Date/Time
EST
Temp

°C
Wind Pressure Rain
since 9am
mm
Weather Cloud Vis
km
Sea
Height
m
Swell
Dir
 
Speed
knots
Gust
knots
hPa Trend Height
m
Period
s
Dir
25/11:38pm 4.1 WSW 5 6 1028.4 - 0.0 - - 5 - - - -
25/11:30pm 4.4 WSW 5 6 1028.4 - 0.0 - - 6 - - - -
25/11:22pm 4.5 WSW 5 6 1028.4 - 0.0 - - 9 - - - -
25/11:00pm 4.5 SSW 6 7 1028.5 - 0.0 - Partly cloudy 4 - - - -
25/10:30pm 4.7 SSW 4 6 1028.6 - 0.0 - Partly cloudy 5 - - - -
25/10:21pm 5.2 SSW 5 6 1028.7 - 0.0 - Partly cloudy 5 - - - -
25/10:05pm 5.6 SSW 5 6 1028.7 - 0.0 - Partly cloudy 6 - - - -
25/10:00pm 5.1 SW 4 6 1028.8 - 0.0 - Partly cloudy 8 - - - -
25/09:35pm 5.2 WSW 5 6 1028.8 - 0.0 - - 5 - - - -
25/09:30pm 5.4 SW 4 5 1028.8 - 0.0 - - 7 - - - -
25/09:11pm 4.3 S 4 6 1028.7 - 0.0 - - 7 - - - -
25/09:00pm 4.5 SSW 5 6 1028.7 - 0.0 - - 2 - - - -
25/08:30pm 5.3 SW 4 5 1028.6 - 0.0 - - 2 - - - -
25/08:00pm 6.2 W 6 7 1028.6 - 0.0 - - 2 - - - -
25/07:30pm 6.6 W 5 6 1028.5 - 0.0 - - 0.9 - - - -
25/07:00pm 7.5 SW 5 6 1028.2 - 0.0 - - 3 - - - -
25/06:30pm 7.0 WSW 5 6 1028.0 - 0.0 - - 5 - - - -
25/06:25pm 7.0 W 5 6 1028.0 - 0.0 - - 5 - - - -
25/06:00pm 8.0 WSW 5 6 1027.7 - 0.0 - - 10 - - - -
25/05:30pm 10.7 CALM 0 0 1027.6 - 0.0 - Partly cloudy 10 - - - -
25/05:00pm 12.8 NW 5 6 1027.4 - 0.0 - Partly cloudy 10 - - - -
25/04:30pm 13.5 WNW 5 7 1027.2 - 0.0 - Partly cloudy 10 - - - -
25/04:00pm 13.7 NW 5 7 1027.3 - 0.0 - - 10 - - - -
25/03:30pm 14.0 WNW 2 6 1027.3 - 0.0 - Cloudy 10 - - - -
25/03:00pm 13.6 CALM 0 0 1027.3 - 0.0 - Mostly cloudy 10 - - - -
25/02:30pm 12.6 E 3 4 1027.5 - 0.0 - Partly cloudy 10 - - - -
25/02:00pm 12.1 ENE 3 5 1027.7 - 0.0 - Partly cloudy 10 - - - -
25/01:30pm 12.0 NE 4 5 1027.9 - 0.0 - Partly cloudy 10 - - - -
25/01:00pm 12.4 NE 3 5 1028.2 - 0.0 - Partly cloudy 10 - - - -
25/12:30pm 12.1 NE 5 7 1028.5 - 0.0 - Partly cloudy 10 - - - -
25/12:00pm 12.9 NE 4 6 1028.8 - 0.0 - Partly cloudy 10 - - - -
25/11:50am 12.8 ENE 3 5 1029.0 - 0.0 - Partly cloudy 10 - - - -
25/11:30am 11.6 E 3 5 1029.3 - 0.0 - Partly cloudy 10 - - - -
25/11:03am 10.6 CALM 0 0 1029.8 - 0.0 - Partly cloudy 10 - - - -
25/11:00am 10.5 CALM 0 0 1029.8 - 0.0 - Partly cloudy 10 - - - -
25/10:30am 9.3 WNW 4 7 1030.0 - 0.0 - Partly cloudy 10 - - - -
25/10:00am 8.9 WNW 3 4 1029.8 - 0.0 - Partly cloudy 10 - - - -
25/09:30am 8.7 W 4 5 1029.7 - 0.0 - Partly cloudy 10 - - - -
25/09:00am 8.4 W 4 5 1029.8 - 0.0 - Cloudy 10 - - - -
25/08:30am 7.6 WSW 5 6 1029.8 - 0.0 - Partly cloudy 10 - - - -
25/08:00am 7.3 WNW 6 7 1029.6 - 0.0 - Partly cloudy 10 - - - -
25/07:30am 7.0 WNW 5 6 1029.3 - 0.0 - Cloudy 10 - - - -
25/07:00am 7.2 WSW 2 5 1029.2 - 0.0 - Partly cloudy 10 - - - -
25/06:30am 7.2 WNW 5 6 1029.3 - 0.0 - Cloudy 10 - - - -
25/06:00am 7.1 W 5 6 1029.1 - 0.0 - Cloudy 10 - - - -
25/05:30am 6.9 WSW 4 5 1028.9 - 0.0 - Cloudy 10 - - - -
25/05:00am 7.1 WNW 3 5 1029.0 - 0.0 - Cloudy 10 - - - -
25/04:30am 6.9 WSW 2 4 1029.2 - 0.0 - Cloudy 10 - - - -
25/04:00am 6.9 W 4 5 1029.2 - 0.0 - Cloudy 10 - - - -
25/03:30am 7.0 WNW 4 5 1029.1 - 0.0 - Cloudy 10 - - - -
25/03:00am 6.9 W 2 5 1029.4 - 0.0 - Cloudy 10 - - - -
25/02:30am 7.2 W 3 4 1029.6 - 0.0 - Cloudy 10 - - - -
25/02:00am 7.0 SSW 4 5 1029.5 - 0.0 - Cloudy 10 - - - -
25/01:30am 6.8 SSW 5 6 1029.5 - 0.0 - Cloudy 10 - - - -
25/01:00am 6.5 WSW 4 6 1029.7 - 0.0 - Cloudy 10 - - - -
25/12:30am 6.5 WNW 5 6 1030.0 - 0.0 - Cloudy 10 - - - -
25/12:00am 6.5 WNW 4 5 1030.0 - 0.0 - Cloudy 9 - - - -
 
Date/Time
EST
Temp

°C
Wind Pressure Rain
since 9am
mm
Weather Cloud Vis
km
Sea
Height
m
Swell
Dir
 
Speed
knots
Gust
knots
hPa Trend Height
m
Period
s
Dir
24/11:30pm 6.3 WNW 3 4 1030.1 - 0.0 - Cloudy 10 - - - -
24/11:00pm 6.2 W 3 5 1030.0 - 0.0 - Cloudy 10 - - - -
24/10:30pm 5.9 WSW 3 5 1030.1 - 0.0 - Cloudy 10 - - - -
24/10:00pm 5.6 SW 4 5 1030.2 - 0.0 - Cloudy 10 - - - -
24/09:30pm 2.9 WSW 6 7 1030.2 - 0.0 - Partly cloudy 10 - - - -
24/09:00pm 3.4 W 7 8 1030.0 - 0.0 - Mostly clear 9 - - - -
24/08:30pm 2.8 W 6 7 1029.8 - 0.0 - - 10 - - - -
24/08:00pm 3.2 WSW 7 7 1029.6 - 0.0 - - 10 - - - -
24/07:30pm 2.8 SW 5 6 1029.4 - 0.0 - - 10 - - - -
24/07:00pm 5.1 SW 4 4 1029.5 - 0.0 - - 10 - - - -
24/06:30pm 5.1 SW 3 4 1029.5 - 0.0 - - 10 - - - -
24/06:00pm 4.3 WSW 6 6 1029.4 - 0.0 - Mostly cloudy 10 - - - -
24/05:30pm 5.3 W 5 6 1029.2 - 0.0 - - 10 - - - -
24/05:00pm 7.8 SW 3 4 1029.0 - 0.0 - - 10 - - - -
24/04:30pm 10.1 CALM 0 0 1028.8 - 0.0 - - 10 - - - -
24/04:00pm 10.5 CALM 0 0 1028.8 - 0.0 - - 10 - - - -
24/03:30pm 10.5 ENE 1 3 1028.8 - 0.0 - - 10 - - - -
24/03:00pm 10.4 N 4 6 1028.9 - 0.0 - Mostly clear 10 - - - -
24/02:30pm 10.3 N 5 7 1029.0 - 0.0 - - 10 - - - -
24/02:00pm 11.1 NNE 7 9 1029.1 - 0.0 - - 10 - - - -
24/01:30pm 11.5 NE 7 8 1029.1 - 0.0 - - 10 - - - -
24/01:00pm 11.8 NNE 4 7 1029.3 - 0.0 - - 10 - - - -
24/12:30pm 11.7 NNW 4 7 1029.7 - 0.0 - - 10 - - - -
24/12:00pm 11.8 WNW 3 5 1030.0 - 0.0 - Mostly clear 10 - - - -
24/11:30am 10.5 NW 4 5 1030.3 - 0.0 - - 10 - - - -
24/11:00am 9.6 WNW 5 5 1030.6 - 0.0 - - 10 - - - -
24/10:30am 8.1 WNW 5 6 1030.5 - 0.0 - - 10 - - - -
24/10:00am 5.8 WNW 7 8 1030.5 - 0.0 - - 10 - - - -
24/09:30am 4.6 WNW 6 7 1030.6 - 0.0 - - 10 - - - -
24/09:00am 3.0 WNW 6 8 1030.8 - 0.0 - - 10 - - - -
24/08:30am 1.2 WNW 7 8 1030.6 - 0.0 - - 10 - - - -
24/08:00am 0.3 WNW 7 8 1030.2 - 0.0 - - 10 - - - -
24/07:30am -1.1 WNW 7 9 1029.9 - 0.0 - - 10 - - - -
24/07:00am -1.5 W 6 7 1029.8 - 0.0 - - 10 - - - -
24/06:30am -0.1 WNW 7 8 1029.7 - 0.0 - - 10 - - - -
24/06:00am -0.7 WNW 6 7 1029.5 - 0.0 - - 10 - - - -
24/05:30am -0.9 WNW 7 8 1029.4 - 0.0 - - 10 - - - -
24/05:00am 0.1 WNW 6 7 1029.4 - 0.0 - - 10 - - - -
24/04:30am -0.8 WNW 7 9 1029.2 - 0.0 - - 10 - - - -
24/04:00am -0.6 WNW 6 8 1029.1 - 0.0 - - 10 - - - -
24/03:30am 0.3 W 6 8 1029.0 - 0.0 - - 10 - - - -
24/03:00am -0.1 W 5 7 1029.0 - 0.0 - - 10 - - - -
24/02:30am 0.0 W 6 8 1029.2 - 0.0 - - 10 - - - -
24/02:00am 1.4 WNW 5 7 1029.3 - 0.0 - - 10 - - - -
24/01:30am 0.9 W 7 8 1029.2 - 0.0 - - 10 - - - -
24/01:00am 2.1 W 5 7 1029.2 - 0.0 - - 10 - - - -
24/12:30am 2.1 WNW 6 7 1029.3 - 0.0 - - 10 - - - -
24/12:00am 2.9 WNW 5 7 1029.2 - 0.0 - - 10 - - - -
 
Date/Time
EST
Temp

°C
Wind Pressure Rain
since 9am
mm
Weather Cloud Vis
km
Sea
Height
m
Swell
Dir
 
Speed
knots
Gust
knots
hPa Trend Height
m
Period
s
Dir
23/11:30pm 3.6 W 6 7 1029.2 - 0.0 - - 10 - - - -
23/11:00pm 4.3 WSW 7 9 1029.1 - 0.0 - - 10 - - - -
23/10:30pm 4.5 W 9 9 1029.4 - 0.0 - - 10 - - - -
23/10:00pm 4.3 WSW 8 9 1029.5 - 0.0 - - 10 - - - -
23/09:30pm 4.5 W 11 12 1029.4 - 0.0 - - 10 - - - -
23/09:00pm 5.2 W 7 8 1029.5 - 0.0 - - 10 - - - -
23/08:30pm 5.9 WNW 9 11 1029.4 - 0.0 - - 10 - - - -
23/08:00pm 6.2 SW 5 6 1029.3 - 0.0 - - 10 - - - -
23/07:30pm 6.4 WSW 9 11 1029.2 - 0.0 - - 10 - - - -
23/07:00pm 7.4 WSW 4 6 1029.3 - 0.0 - - 10 - - - -
23/06:30pm 8.9 SW 8 12 1029.2 - 0.0 - - 10 - - - -
23/06:00pm 10.2 SSW 11 14 1028.9 - 0.0 - - 10 - - - -
23/05:30pm 10.9 SSW 11 15 1028.8 - 0.0 - - 10 - - - -
23/05:00pm 11.3 SSW 7 10 1028.7 - 0.0 - - 10 - - - -
23/04:30pm 12.5 SSW 5 6 1028.5 - 0.0 - - 10 - - - -
23/04:00pm 13.2 S 5 8 1028.4 - 0.0 - - 10 - - - -
23/03:30pm 14.4 SSW 5 8 1028.2 - 0.0 - - 10 - - - -
23/03:00pm 14.8 S 6 13 1028.0 - 0.0 - - 10 - - - -
23/02:30pm 15.1 SW 8 11 1028.0 - 0.0 - - 10 - - - -
23/02:00pm 14.9 SW 10 14 1028.2 - 0.0 - - 10 - - - -
23/01:30pm 14.7 SW 9 14 1028.3 - 0.0 - - 10 - - - -
23/01:00pm 14.1 SW 9 13 1028.6 - 0.0 - - 10 - - - -
23/12:30pm 14.1 SW 6 10 1028.8 - 0.0 - - 10 - - - -
23/12:00pm 13.2 SSW 6 10 1029.1 - 0.0 - - 10 - - - -
23/11:30am 12.8 SSW 11 18 1029.5 - 0.0 - - 10 - - - -
23/11:00am 12.3 SSW 10 21 1029.8 - 0.0 - - 10 - - - -
23/10:30am 12.1 SW 9 14 1030.0 - 0.0 - - 10 - - - -
23/10:00am 11.2 SW 6 10 1030.0 - 0.0 - - 10 - - - -
23/09:30am 10.5 SW 3 6 1030.0 - 0.0 - - 10 - - - -
23/09:00am 8.5 WSW 2 6 1030.0 - 0.2 Recent precip. - 10 - - - -
23/08:30am 5.4 WSW 5 7 1029.7 - 0.2 - - 10 - - - -
23/08:00am 3.0 W 7 9 1029.5 - 0.0 - - 10 - - - -
23/07:30am 1.1 W 7 10 1029.1 - 0.0 - - 10 - - - -
23/07:00am 1.4 WSW 7 10 1029.1 - 0.0 - - 10 - - - -
23/06:30am 1.1 WSW 7 11 1028.9 - 0.0 - - 10 - - - -
23/06:00am 1.3 W 9 12 1028.6 - 0.0 - - 10 - - - -

Other Formats:

Comma delimited format used in spreadsheet applications
http://www.bom.gov.au/fwo/IDV60701/IDV60701.95957.axf

JavaScript Object Notation format (JSON) in row-major order
http://www.bom.gov.au/fwo/IDV60701/IDV60701.95957.json